sensor_id;sensor_type;location;lat;lon;timestamp;temperature;humidity
4673;DHT22;61885;53.560;9.940;2023-10-08T00:01:09;10.80;99.90
4673;DHT22;61885;53.560;9.940;2023-10-08T00:03:41;10.80;99.90
4673;DHT22;61885;53.560;9.940;2023-10-08T00:06:15;10.90;99.90
4673;DHT22;61885;53.560;9.940;2023-10-08T00:08:47;10.80;99.90
4673;DHT22;61885;53.560;9.940;2023-10-08T00:11:19;10.90;99.90
4673;DHT22;61885;53.560;9.940;2023-10-08T00:13:49;10.90;99.90
4673;DHT22;61885;53.560;9.940;2023-10-08T00:16:22;10.80;99.90
4673;DHT22;61885;53.560;9.940;2023-10-08T00:18:55;10.90;99.90
4673;DHT22;61885;53.560;9.940;2023-10-08T00:21:29;10.90;99.90
4673;DHT22;61885;53.560;9.940;2023-10-08T00:24:01;10.80;99.90
4673;DHT22;61885;53.560;9.940;2023-10-08T00:26:36;10.90;99.90
4673;DHT22;61885;53.560;9.940;2023-10-08T00:29:07;10.90;99.90
4673;DHT22;61885;53.560;9.940;2023-10-08T00:31:43;10.90;99.90
4673;DHT22;61885;53.560;9.940;2023-10-08T00:34:12;10.90;99.90
4673;DHT22;61885;53.560;9.940;2023-10-08T00:36:44;10.90;99.90
4673;DHT22;61885;53.560;9.940;2023-10-08T00:39:15;10.80;99.90
4673;DHT22;61885;53.560;9.940;2023-10-08T00:41:52;10.90;99.90
4673;DHT22;61885;53.560;9.940;2023-10-08T00:44:25;10.90;99.90
4673;DHT22;61885;53.560;9.940;2023-10-08T00:46:57;10.90;99.90
4673;DHT22;61885;53.560;9.940;2023-10-08T00:49:29;10.90;99.90
4673;DHT22;61885;53.560;9.940;2023-10-08T00:52:16;10.90;99.90
4673;DHT22;61885;53.560;9.940;2023-10-08T00:54:57;10.90;99.90
4673;DHT22;61885;53.560;9.940;2023-10-08T00:57:44;11.00;99.90
4673;DHT22;61885;53.560;9.940;2023-10-08T01:00:15;10.90;99.90
4673;DHT22;61885;53.560;9.940;2023-10-08T01:02:48;11.10;99.90
4673;DHT22;61885;53.560;9.940;2023-10-08T01:05:27;10.90;99.90
4673;DHT22;61885;53.560;9.940;2023-10-08T01:08:09;11.00;99.90
4673;DHT22;61885;53.560;9.940;2023-10-08T01:10:49;10.90;99.90
4673;DHT22;61885;53.560;9.940;2023-10-08T01:13:30;11.00;99.90
4673;DHT22;61885;53.560;9.940;2023-10-08T01:16:03;11.00;99.90
4673;DHT22;61885;53.560;9.940;2023-10-08T01:18:36;11.00;99.90
4673;DHT22;61885;53.560;9.940;2023-10-08T01:21:10;11.00;99.90
4673;DHT22;61885;53.560;9.940;2023-10-08T01:23:58;10.90;99.90
4673;DHT22;61885;53.560;9.940;2023-10-08T01:26:32;10.90;99.90
4673;DHT22;61885;53.560;9.940;2023-10-08T01:29:08;11.00;99.90
4673;DHT22;61885;53.560;9.940;2023-10-08T01:31:46;10.90;99.90
4673;DHT22;61885;53.560;9.940;2023-10-08T01:34:15;10.90;99.90
4673;DHT22;61885;53.560;9.940;2023-10-08T01:36:45;10.90;99.90
4673;DHT22;61885;53.560;9.940;2023-10-08T01:39:17;10.90;99.90
4673;DHT22;61885;53.560;9.940;2023-10-08T01:41:47;10.90;99.90
4673;DHT22;61885;53.560;9.940;2023-10-08T01:44:17;11.00;99.90
4673;DHT22;61885;53.560;9.940;2023-10-08T01:46:47;11.00;99.90
4673;DHT22;61885;53.560;9.940;2023-10-08T01:49:17;11.00;99.90
4673;DHT22;61885;53.560;9.940;2023-10-08T01:51:49;11.00;99.90
4673;DHT22;61885;53.560;9.940;2023-10-08T01:54:23;10.90;99.90
4673;DHT22;61885;53.560;9.940;2023-10-08T01:56:52;11.00;99.90
4673;DHT22;61885;53.560;9.940;2023-10-08T01:59:22;11.10;99.90
4673;DHT22;61885;53.560;9.940;2023-10-08T02:01:52;11.10;99.90
4673;DHT22;61885;53.560;9.940;2023-10-08T02:04:23;11.10;99.90
4673;DHT22;61885;53.560;9.940;2023-10-08T02:06:53;11.10;99.90
4673;DHT22;61885;53.560;9.940;2023-10-08T02:09:25;11.00;99.90
4673;DHT22;61885;53.560;9.940;2023-10-08T02:11:56;11.00;99.90
4673;DHT22;61885;53.560;9.940;2023-10-08T02:14:25;11.10;99.90
4673;DHT22;61885;53.560;9.940;2023-10-08T02:16:58;11.00;99.90
4673;DHT22;61885;53.560;9.940;2023-10-08T02:19:32;10.90;99.90
4673;DHT22;61885;53.560;9.940;2023-10-08T02:22:03;10.90;99.90
4673;DHT22;61885;53.560;9.940;2023-10-08T02:24:39;10.90;99.90
4673;DHT22;61885;53.560;9.940;2023-10-08T02:27:09;11.00;99.90
4673;DHT22;61885;53.560;9.940;2023-10-08T02:29:41;11.10;99.90
4673;DHT22;61885;53.560;9.940;2023-10-08T02:32:11;11.00;99.90
4673;DHT22;61885;53.560;9.940;2023-10-08T02:34:41;11.00;99.90
4673;DHT22;61885;53.560;9.940;2023-10-08T02:37:11;11.00;99.90
4673;DHT22;61885;53.560;9.940;2023-10-08T02:39:44;11.00;99.90
4673;DHT22;61885;53.560;9.940;2023-10-08T02:42:14;11.00;99.90
4673;DHT22;61885;53.560;9.940;2023-10-08T02:44:45;10.90;99.90
4673;DHT22;61885;53.560;9.940;2023-10-08T02:47:15;11.00;99.60
4673;DHT22;61885;53.560;9.940;2023-10-08T02:49:47;10.90;99.50
4673;DHT22;61885;53.560;9.940;2023-10-08T02:52:19;11.00;99.40
4673;DHT22;61885;53.560;9.940;2023-10-08T02:54:51;10.90;99.00
4673;DHT22;61885;53.560;9.940;2023-10-08T02:57:22;10.90;98.50
4673;DHT22;61885;53.560;9.940;2023-10-08T02:59:55;11.00;98.30
4673;DHT22;61885;53.560;9.940;2023-10-08T03:02:25;10.90;98.10
4673;DHT22;61885;53.560;9.940;2023-10-08T03:04:55;10.90;97.80
4673;DHT22;61885;53.560;9.940;2023-10-08T03:07:25;10.90;97.60
4673;DHT22;61885;53.560;9.940;2023-10-08T03:10:02;10.90;97.50
4673;DHT22;61885;53.560;9.940;2023-10-08T03:12:44;11.00;96.50
4673;DHT22;61885;53.560;9.940;2023-10-08T03:15:15;10.90;96.60
4673;DHT22;61885;53.560;9.940;2023-10-08T03:17:55;10.90;96.40
4673;DHT22;61885;53.560;9.940;2023-10-08T03:20:35;10.90;96.50
4673;DHT22;61885;53.560;9.940;2023-10-08T03:23:10;10.90;96.50
4673;DHT22;61885;53.560;9.940;2023-10-08T03:25:54;10.90;96.50
4673;DHT22;61885;53.560;9.940;2023-10-08T03:28:30;10.90;96.20
4673;DHT22;61885;53.560;9.940;2023-10-08T03:31:01;10.80;95.70
4673;DHT22;61885;53.560;9.940;2023-10-08T03:33:43;10.90;95.30
4673;DHT22;61885;53.560;9.940;2023-10-08T03:36:15;10.80;95.80
4673;DHT22;61885;53.560;9.940;2023-10-08T03:39:00;10.90;95.50
4673;DHT22;61885;53.560;9.940;2023-10-08T03:41:41;11.00;95.30
4673;DHT22;61885;53.560;9.940;2023-10-08T03:44:18;10.90;94.90
4673;DHT22;61885;53.560;9.940;2023-10-08T03:46:47;10.90;94.60
4673;DHT22;61885;53.560;9.940;2023-10-08T03:49:19;10.90;94.50
4673;DHT22;61885;53.560;9.940;2023-10-08T03:51:55;10.90;94.80
4673;DHT22;61885;53.560;9.940;2023-10-08T03:54:24;10.90;94.70
4673;DHT22;61885;53.560;9.940;2023-10-08T03:57:03;10.80;94.10
4673;DHT22;61885;53.560;9.940;2023-10-08T03:59:42;10.80;94.10
4673;DHT22;61885;53.560;9.940;2023-10-08T04:02:14;10.80;93.90
4673;DHT22;61885;53.560;9.940;2023-10-08T04:04:51;10.80;94.20
4673;DHT22;61885;53.560;9.940;2023-10-08T04:07:24;10.80;94.20
4673;DHT22;61885;53.560;9.940;2023-10-08T04:09:55;10.80;93.90
4673;DHT22;61885;53.560;9.940;2023-10-08T04:12:56;10.90;94.10
4673;DHT22;61885;53.560;9.940;2023-10-08T04:15:26;10.80;93.90
4673;DHT22;61885;53.560;9.940;2023-10-08T04:17:56;10.80;93.80
4673;DHT22;61885;53.560;9.940;2023-10-08T04:20:29;10.90;93.80
4673;DHT22;61885;53.560;9.940;2023-10-08T04:23:06;10.80;93.80
4673;DHT22;61885;53.560;9.940;2023-10-08T04:25:40;10.90;93.80
4673;DHT22;61885;53.560;9.940;2023-10-08T04:28:14;10.80;94.00
4673;DHT22;61885;53.560;9.940;2023-10-08T04:30:47;10.90;93.80
4673;DHT22;61885;53.560;9.940;2023-10-08T04:33:17;10.80;93.60
4673;DHT22;61885;53.560;9.940;2023-10-08T04:35:47;10.80;92.90
4673;DHT22;61885;53.560;9.940;2023-10-08T04:38:24;10.90;93.30
4673;DHT22;61885;53.560;9.940;2023-10-08T04:40:55;10.90;93.00
4673;DHT22;61885;53.560;9.940;2023-10-08T04:43:31;10.80;93.10
4673;DHT22;61885;53.560;9.940;2023-10-08T04:46:04;10.80;92.60
4673;DHT22;61885;53.560;9.940;2023-10-08T04:48:45;10.70;91.70
4673;DHT22;61885;53.560;9.940;2023-10-08T04:51:16;10.80;92.00
4673;DHT22;61885;53.560;9.940;2023-10-08T04:53:48;10.80;91.70
4673;DHT22;61885;53.560;9.940;2023-10-08T04:56:18;10.80;91.70
4673;DHT22;61885;53.560;9.940;2023-10-08T04:58:52;10.80;91.30
4673;DHT22;61885;53.560;9.940;2023-10-08T05:01:23;10.90;91.30
4673;DHT22;61885;53.560;9.940;2023-10-08T05:04:07;10.80;91.10
4673;DHT22;61885;53.560;9.940;2023-10-08T05:06:50;10.70;91.20
4673;DHT22;61885;53.560;9.940;2023-10-08T05:09:27;10.80;91.60
4673;DHT22;61885;53.560;9.940;2023-10-08T05:12:12;10.70;91.90
4673;DHT22;61885;53.560;9.940;2023-10-08T05:15:00;10.70;92.10
4673;DHT22;61885;53.560;9.940;2023-10-08T05:17:50;10.80;92.60
4673;DHT22;61885;53.560;9.940;2023-10-08T05:20:39;10.80;92.50
4673;DHT22;61885;53.560;9.940;2023-10-08T05:23:25;10.80;92.80
4673;DHT22;61885;53.560;9.940;2023-10-08T05:26:08;10.70;92.40
4673;DHT22;61885;53.560;9.940;2023-10-08T05:28:47;10.70;93.00
4673;DHT22;61885;53.560;9.940;2023-10-08T05:31:33;10.70;93.10
4673;DHT22;61885;53.560;9.940;2023-10-08T05:34:13;10.70;93.10
4673;DHT22;61885;53.560;9.940;2023-10-08T05:36:51;10.60;93.00
4673;DHT22;61885;53.560;9.940;2023-10-08T05:39:33;10.60;93.00
4673;DHT22;61885;53.560;9.940;2023-10-08T05:42:13;10.60;92.90
4673;DHT22;61885;53.560;9.940;2023-10-08T05:44:45;10.60;92.90
4673;DHT22;61885;53.560;9.940;2023-10-08T05:47:37;10.50;93.30
4673;DHT22;61885;53.560;9.940;2023-10-08T05:50:05;10.60;93.40
4673;DHT22;61885;53.560;9.940;2023-10-08T05:52:48;10.70;93.90
4673;DHT22;61885;53.560;9.940;2023-10-08T05:55:29;10.60;93.40
4673;DHT22;61885;53.560;9.940;2023-10-08T05:58:01;10.60;93.90
4673;DHT22;61885;53.560;9.940;2023-10-08T06:00:51;10.60;93.80
4673;DHT22;61885;53.560;9.940;2023-10-08T06:03:38;10.50;94.00
4673;DHT22;61885;53.560;9.940;2023-10-08T06:06:26;10.50;93.90
4673;DHT22;61885;53.560;9.940;2023-10-08T06:09:07;10.60;93.70
4673;DHT22;61885;53.560;9.940;2023-10-08T06:12:01;10.60;93.20
4673;DHT22;61885;53.560;9.940;2023-10-08T06:14:39;10.60;93.10
4673;DHT22;61885;53.560;9.940;2023-10-08T06:17:37;10.70;93.20
4673;DHT22;61885;53.560;9.940;2023-10-08T06:20:22;10.70;93.10
4673;DHT22;61885;53.560;9.940;2023-10-08T06:22:55;10.70;93.10
4673;DHT22;61885;53.560;9.940;2023-10-08T06:25:30;10.60;93.30
4673;DHT22;61885;53.560;9.940;2023-10-08T06:27:59;10.70;93.60
4673;DHT22;61885;53.560;9.940;2023-10-08T06:30:29;10.70;93.10
4673;DHT22;61885;53.560;9.940;2023-10-08T06:33:01;10.60;92.90
4673;DHT22;61885;53.560;9.940;2023-10-08T06:35:33;10.70;92.80
4673;DHT22;61885;53.560;9.940;2023-10-08T06:38:03;10.70;92.70
4673;DHT22;61885;53.560;9.940;2023-10-08T06:40:36;10.70;92.50
4673;DHT22;61885;53.560;9.940;2023-10-08T06:43:10;10.70;92.40
4673;DHT22;61885;53.560;9.940;2023-10-08T06:45:55;10.80;92.30
4673;DHT22;61885;53.560;9.940;2023-10-08T06:48:26;10.80;92.40
4673;DHT22;61885;53.560;9.940;2023-10-08T06:50:58;10.80;92.50
4673;DHT22;61885;53.560;9.940;2023-10-08T06:53:34;10.90;92.60
4673;DHT22;61885;53.560;9.940;2023-10-08T06:56:05;11.00;92.40
4673;DHT22;61885;53.560;9.940;2023-10-08T06:58:38;10.90;91.90
4673;DHT22;61885;53.560;9.940;2023-10-08T07:01:12;10.90;90.90
4673;DHT22;61885;53.560;9.940;2023-10-08T07:03:47;11.00;90.50
4673;DHT22;61885;53.560;9.940;2023-10-08T07:06:21;11.00;89.70
4673;DHT22;61885;53.560;9.940;2023-10-08T07:08:58;11.10;89.10
4673;DHT22;61885;53.560;9.940;2023-10-08T07:11:31;11.10;88.70
4673;DHT22;61885;53.560;9.940;2023-10-08T07:14:06;11.10;89.00
4673;DHT22;61885;53.560;9.940;2023-10-08T07:16:37;11.10;88.30
4673;DHT22;61885;53.560;9.940;2023-10-08T07:19:08;11.20;88.30
4673;DHT22;61885;53.560;9.940;2023-10-08T07:21:48;11.20;87.30
4673;DHT22;61885;53.560;9.940;2023-10-08T07:24:21;11.30;86.90
4673;DHT22;61885;53.560;9.940;2023-10-08T07:26:51;11.20;85.90
4673;DHT22;61885;53.560;9.940;2023-10-08T07:29:22;11.30;85.70
4673;DHT22;61885;53.560;9.940;2023-10-08T07:31:51;11.30;85.90
4673;DHT22;61885;53.560;9.940;2023-10-08T07:34:21;11.40;85.80
4673;DHT22;61885;53.560;9.940;2023-10-08T07:37:00;11.30;86.20
4673;DHT22;61885;53.560;9.940;2023-10-08T07:39:32;11.50;85.00
4673;DHT22;61885;53.560;9.940;2023-10-08T07:42:13;11.60;84.60
4673;DHT22;61885;53.560;9.940;2023-10-08T07:44:43;11.40;83.80
4673;DHT22;61885;53.560;9.940;2023-10-08T07:47:14;11.60;82.80
4673;DHT22;61885;53.560;9.940;2023-10-08T07:49:45;11.70;83.00
4673;DHT22;61885;53.560;9.940;2023-10-08T07:52:17;11.80;82.90
4673;DHT22;61885;53.560;9.940;2023-10-08T07:54:47;11.70;83.60
4673;DHT22;61885;53.560;9.940;2023-10-08T07:57:17;11.70;83.00
4673;DHT22;61885;53.560;9.940;2023-10-08T07:59:52;11.70;82.70
4673;DHT22;61885;53.560;9.940;2023-10-08T08:02:28;11.70;81.50
4673;DHT22;61885;53.560;9.940;2023-10-08T08:04:57;11.90;82.40
4673;DHT22;61885;53.560;9.940;2023-10-08T08:07:32;11.80;81.70
4673;DHT22;61885;53.560;9.940;2023-10-08T08:10:01;12.00;81.50
4673;DHT22;61885;53.560;9.940;2023-10-08T08:12:37;11.90;80.40
4673;DHT22;61885;53.560;9.940;2023-10-08T08:15:07;12.00;80.60
4673;DHT22;61885;53.560;9.940;2023-10-08T08:17:53;11.90;80.20
4673;DHT22;61885;53.560;9.940;2023-10-08T08:20:23;11.90;79.10
4673;DHT22;61885;53.560;9.940;2023-10-08T08:23:04;12.00;79.50
4673;DHT22;61885;53.560;9.940;2023-10-08T08:25:37;12.10;80.30
4673;DHT22;61885;53.560;9.940;2023-10-08T08:28:12;12.10;80.00
4673;DHT22;61885;53.560;9.940;2023-10-08T08:30:44;12.20;79.70
4673;DHT22;61885;53.560;9.940;2023-10-08T08:33:14;12.30;80.20
4673;DHT22;61885;53.560;9.940;2023-10-08T08:35:58;12.30;79.60
4673;DHT22;61885;53.560;9.940;2023-10-08T08:38:31;12.30;79.00
4673;DHT22;61885;53.560;9.940;2023-10-08T08:41:04;12.30;79.10
4673;DHT22;61885;53.560;9.940;2023-10-08T08:43:39;12.30;78.20
4673;DHT22;61885;53.560;9.940;2023-10-08T08:46:11;12.30;79.40
4673;DHT22;61885;53.560;9.940;2023-10-08T08:48:43;12.40;79.30
4673;DHT22;61885;53.560;9.940;2023-10-08T08:59:04;12.50;78.30
4673;DHT22;61885;53.560;9.940;2023-10-08T09:01:42;12.50;78.40
4673;DHT22;61885;53.560;9.940;2023-10-08T09:04:30;12.60;78.70
4673;DHT22;61885;53.560;9.940;2023-10-08T09:07:02;12.70;78.70
4673;DHT22;61885;53.560;9.940;2023-10-08T09:09:41;12.70;78.20
4673;DHT22;61885;53.560;9.940;2023-10-08T09:12:20;12.80;78.60
4673;DHT22;61885;53.560;9.940;2023-10-08T09:14:59;12.90;78.20
4673;DHT22;61885;53.560;9.940;2023-10-08T09:17:33;12.90;77.70
4673;DHT22;61885;53.560;9.940;2023-10-08T09:20:08;12.90;78.30
4673;DHT22;61885;53.560;9.940;2023-10-08T09:22:40;13.00;76.80
4673;DHT22;61885;53.560;9.940;2023-10-08T09:25:20;13.10;77.50
4673;DHT22;61885;53.560;9.940;2023-10-08T09:27:59;13.20;75.70
4673;DHT22;61885;53.560;9.940;2023-10-08T09:30:46;13.30;75.20
4673;DHT22;61885;53.560;9.940;2023-10-08T09:33:18;13.40;73.70
4673;DHT22;61885;53.560;9.940;2023-10-08T09:35:51;13.40;71.90
4673;DHT22;61885;53.560;9.940;2023-10-08T09:38:26;13.40;70.40
4673;DHT22;61885;53.560;9.940;2023-10-08T09:40:59;13.40;69.90
4673;DHT22;61885;53.560;9.940;2023-10-08T09:43:32;13.40;70.90
4673;DHT22;61885;53.560;9.940;2023-10-08T09:46:11;13.50;72.10
4673;DHT22;61885;53.560;9.940;2023-10-08T09:48:59;13.40;72.70
4673;DHT22;61885;53.560;9.940;2023-10-08T09:51:37;13.40;73.40
4673;DHT22;61885;53.560;9.940;2023-10-08T09:54:17;13.50;73.60
4673;DHT22;61885;53.560;9.940;2023-10-08T09:56:49;13.50;73.80
4673;DHT22;61885;53.560;9.940;2023-10-08T09:59:19;13.60;73.90
4673;DHT22;61885;53.560;9.940;2023-10-08T10:01:56;13.70;74.70
4673;DHT22;61885;53.560;9.940;2023-10-08T10:04:31;13.70;72.50
4673;DHT22;61885;53.560;9.940;2023-10-08T10:07:09;13.70;73.10
4673;DHT22;61885;53.560;9.940;2023-10-08T10:09:46;13.60;73.60
4673;DHT22;61885;53.560;9.940;2023-10-08T10:12:27;13.70;75.80
4673;DHT22;61885;53.560;9.940;2023-10-08T10:15:25;13.90;73.70
4673;DHT22;61885;53.560;9.940;2023-10-08T10:18:08;14.10;72.80
4673;DHT22;61885;53.560;9.940;2023-10-08T10:20:46;14.20;71.70
4673;DHT22;61885;53.560;9.940;2023-10-08T10:23:35;14.20;72.70
4673;DHT22;61885;53.560;9.940;2023-10-08T10:26:22;14.30;72.50
4673;DHT22;61885;53.560;9.940;2023-10-08T10:29:17;14.40;71.60
4673;DHT22;61885;53.560;9.940;2023-10-08T10:31:49;14.50;71.60
4673;DHT22;61885;53.560;9.940;2023-10-08T10:34:24;14.40;71.40
4673;DHT22;61885;53.560;9.940;2023-10-08T10:37:14;14.50;72.80
4673;DHT22;61885;53.560;9.940;2023-10-08T10:39:53;14.60;71.00
4673;DHT22;61885;53.560;9.940;2023-10-08T10:42:27;14.80;68.50
4673;DHT22;61885;53.560;9.940;2023-10-08T10:45:00;14.80;65.50
4673;DHT22;61885;53.560;9.940;2023-10-08T10:47:56;14.90;67.90
4673;DHT22;61885;53.560;9.940;2023-10-08T10:50:40;15.00;69.00
4673;DHT22;61885;53.560;9.940;2023-10-08T10:53:39;14.90;67.60
4673;DHT22;61885;53.560;9.940;2023-10-08T10:56:28;14.60;66.30
4673;DHT22;61885;53.560;9.940;2023-10-08T10:59:09;14.60;68.90
4673;DHT22;61885;53.560;9.940;2023-10-08T11:01:46;14.60;69.30
4673;DHT22;61885;53.560;9.940;2023-10-08T11:04:23;14.60;70.40
4673;DHT22;61885;53.560;9.940;2023-10-08T11:06:58;14.60;68.80
4673;DHT22;61885;53.560;9.940;2023-10-08T11:09:33;14.60;69.00
4673;DHT22;61885;53.560;9.940;2023-10-08T11:12:13;14.70;68.30
4673;DHT22;61885;53.560;9.940;2023-10-08T11:14:49;14.80;67.40
4673;DHT22;61885;53.560;9.940;2023-10-08T11:17:31;14.70;67.40
4673;DHT22;61885;53.560;9.940;2023-10-08T11:20:01;14.90;66.70
4673;DHT22;61885;53.560;9.940;2023-10-08T11:22:45;15.00;65.60
4673;DHT22;61885;53.560;9.940;2023-10-08T11:25:21;15.00;65.20
4673;DHT22;61885;53.560;9.940;2023-10-08T11:27:57;15.00;64.80
4673;DHT22;61885;53.560;9.940;2023-10-08T11:30:29;15.20;65.70
4673;DHT22;61885;53.560;9.940;2023-10-08T11:33:03;15.20;63.00
4673;DHT22;61885;53.560;9.940;2023-10-08T11:35:34;15.40;63.20
4673;DHT22;61885;53.560;9.940;2023-10-08T11:38:21;15.50;64.20
4673;DHT22;61885;53.560;9.940;2023-10-08T11:40:53;15.70;62.90
4673;DHT22;61885;53.560;9.940;2023-10-08T11:43:30;15.40;66.30
4673;DHT22;61885;53.560;9.940;2023-10-08T11:46:02;15.50;66.10
4673;DHT22;61885;53.560;9.940;2023-10-08T11:48:32;15.60;67.10
4673;DHT22;61885;53.560;9.940;2023-10-08T11:51:05;15.50;64.70
4673;DHT22;61885;53.560;9.940;2023-10-08T11:53:41;15.00;65.70
4673;DHT22;61885;53.560;9.940;2023-10-08T11:56:12;15.20;69.30
4673;DHT22;61885;53.560;9.940;2023-10-08T11:58:50;15.40;66.20
4673;DHT22;61885;53.560;9.940;2023-10-08T12:01:25;15.50;66.80
4673;DHT22;61885;53.560;9.940;2023-10-08T12:03:55;15.40;67.10
4673;DHT22;61885;53.560;9.940;2023-10-08T12:06:26;15.30;67.10
4673;DHT22;61885;53.560;9.940;2023-10-08T12:09:00;15.60;68.50
4673;DHT22;61885;53.560;9.940;2023-10-08T12:11:38;15.80;63.80
4673;DHT22;61885;53.560;9.940;2023-10-08T12:14:09;16.30;64.60
4673;DHT22;61885;53.560;9.940;2023-10-08T12:16:41;16.30;62.70
4673;DHT22;61885;53.560;9.940;2023-10-08T12:19:12;15.80;62.10
4673;DHT22;61885;53.560;9.940;2023-10-08T12:21:48;15.70;63.60
4673;DHT22;61885;53.560;9.940;2023-10-08T12:24:32;16.00;64.80
4673;DHT22;61885;53.560;9.940;2023-10-08T12:27:09;16.00;65.20
4673;DHT22;61885;53.560;9.940;2023-10-08T12:29:44;16.00;63.80
4673;DHT22;61885;53.560;9.940;2023-10-08T12:32:34;16.00;64.60
4673;DHT22;61885;53.560;9.940;2023-10-08T12:37:59;15.90;65.20
4673;DHT22;61885;53.560;9.940;2023-10-08T12:40:36;15.90;65.10
4673;DHT22;61885;53.560;9.940;2023-10-08T12:43:21;16.00;65.50
4673;DHT22;61885;53.560;9.940;2023-10-08T12:45:54;16.10;64.90
4673;DHT22;61885;53.560;9.940;2023-10-08T12:48:47;16.00;64.60
4673;DHT22;61885;53.560;9.940;2023-10-08T12:51:31;16.20;64.50
4673;DHT22;61885;53.560;9.940;2023-10-08T12:54:02;16.00;63.20
4673;DHT22;61885;53.560;9.940;2023-10-08T12:56:40;16.00;62.80
4673;DHT22;61885;53.560;9.940;2023-10-08T12:59:11;16.00;62.80
4673;DHT22;61885;53.560;9.940;2023-10-08T13:01:51;16.00;63.30
4673;DHT22;61885;53.560;9.940;2023-10-08T13:04:26;15.80;63.40
4673;DHT22;61885;53.560;9.940;2023-10-08T13:07:04;15.80;62.80
4673;DHT22;61885;53.560;9.940;2023-10-08T13:09:35;15.70;64.50
4673;DHT22;61885;53.560;9.940;2023-10-08T13:12:09;15.80;64.20
4673;DHT22;61885;53.560;9.940;2023-10-08T13:14:41;15.90;63.80
4673;DHT22;61885;53.560;9.940;2023-10-08T13:17:11;16.00;62.60
4673;DHT22;61885;53.560;9.940;2023-10-08T13:19:47;16.20;62.50
4673;DHT22;61885;53.560;9.940;2023-10-08T13:22:20;16.30;61.60
4673;DHT22;61885;53.560;9.940;2023-10-08T13:24:51;16.30;60.70
4673;DHT22;61885;53.560;9.940;2023-10-08T13:27:32;16.10;60.80
4673;DHT22;61885;53.560;9.940;2023-10-08T13:30:08;15.80;61.40
4673;DHT22;61885;53.560;9.940;2023-10-08T13:32:53;15.60;62.30
4673;DHT22;61885;53.560;9.940;2023-10-08T13:35:26;15.50;62.80
4673;DHT22;61885;53.560;9.940;2023-10-08T13:38:04;15.30;64.30
4673;DHT22;61885;53.560;9.940;2023-10-08T13:40:41;15.10;65.20
4673;DHT22;61885;53.560;9.940;2023-10-08T13:43:33;15.10;65.90
4673;DHT22;61885;53.560;9.940;2023-10-08T13:46:07;15.20;65.60
4673;DHT22;61885;53.560;9.940;2023-10-08T13:48:42;15.30;65.20
4673;DHT22;61885;53.560;9.940;2023-10-08T13:51:17;15.40;64.90
4673;DHT22;61885;53.560;9.940;2023-10-08T13:53:53;15.40;65.20
4673;DHT22;61885;53.560;9.940;2023-10-08T13:56:27;15.30;65.60
4673;DHT22;61885;53.560;9.940;2023-10-08T13:59:03;15.50;64.30
4673;DHT22;61885;53.560;9.940;2023-10-08T14:01:40;15.60;63.20
4673;DHT22;61885;53.560;9.940;2023-10-08T14:04:13;15.70;62.50
4673;DHT22;61885;53.560;9.940;2023-10-08T14:06:47;15.60;62.70
4673;DHT22;61885;53.560;9.940;2023-10-08T14:09:26;15.50;63.50
4673;DHT22;61885;53.560;9.940;2023-10-08T14:12:06;15.30;64.10
4673;DHT22;61885;53.560;9.940;2023-10-08T14:14:49;15.20;64.20
4673;DHT22;61885;53.560;9.940;2023-10-08T14:17:21;15.30;64.00
4673;DHT22;61885;53.560;9.940;2023-10-08T14:20:07;15.20;63.20
4673;DHT22;61885;53.560;9.940;2023-10-08T14:22:48;15.10;63.30
4673;DHT22;61885;53.560;9.940;2023-10-08T14:25:26;15.30;63.50
4673;DHT22;61885;53.560;9.940;2023-10-08T14:28:06;15.40;62.30
4673;DHT22;61885;53.560;9.940;2023-10-08T14:31:02;15.40;61.90
4673;DHT22;61885;53.560;9.940;2023-10-08T14:33:36;15.30;62.10
4673;DHT22;61885;53.560;9.940;2023-10-08T14:36:09;15.20;62.30
4673;DHT22;61885;53.560;9.940;2023-10-08T14:38:52;15.10;62.80
4673;DHT22;61885;53.560;9.940;2023-10-08T14:41:36;15.20;62.20
4673;DHT22;61885;53.560;9.940;2023-10-08T14:44:50;15.20;62.40
4673;DHT22;61885;53.560;9.940;2023-10-08T14:47:36;15.10;61.90
4673;DHT22;61885;53.560;9.940;2023-10-08T14:50:06;14.80;62.20
4673;DHT22;61885;53.560;9.940;2023-10-08T14:52:43;14.80;63.10
4673;DHT22;61885;53.560;9.940;2023-10-08T14:55:16;14.90;63.50
4673;DHT22;61885;53.560;9.940;2023-10-08T14:57:58;15.00;64.30
4673;DHT22;61885;53.560;9.940;2023-10-08T15:00:37;15.00;63.70
4673;DHT22;61885;53.560;9.940;2023-10-08T15:03:24;14.80;64.60
4673;DHT22;61885;53.560;9.940;2023-10-08T15:05:55;14.70;65.20
4673;DHT22;61885;53.560;9.940;2023-10-08T15:08:25;14.80;66.10
4673;DHT22;61885;53.560;9.940;2023-10-08T15:10:56;14.70;65.90
4673;DHT22;61885;53.560;9.940;2023-10-08T15:13:29;14.70;66.20
4673;DHT22;61885;53.560;9.940;2023-10-08T15:16:04;14.80;66.90
4673;DHT22;61885;53.560;9.940;2023-10-08T15:18:37;14.70;67.90
4673;DHT22;61885;53.560;9.940;2023-10-08T15:21:09;14.40;67.20
4673;DHT22;61885;53.560;9.940;2023-10-08T15:23:43;14.50;67.40
4673;DHT22;61885;53.560;9.940;2023-10-08T15:26:14;14.60;68.30
4673;DHT22;61885;53.560;9.940;2023-10-08T15:28:46;14.70;67.20
4673;DHT22;61885;53.560;9.940;2023-10-08T15:31:17;14.60;67.50
4673;DHT22;61885;53.560;9.940;2023-10-08T15:33:49;14.70;67.70
4673;DHT22;61885;53.560;9.940;2023-10-08T15:36:23;14.50;68.90
4673;DHT22;61885;53.560;9.940;2023-10-08T15:38:54;14.50;68.00
4673;DHT22;61885;53.560;9.940;2023-10-08T15:41:27;14.40;68.70
4673;DHT22;61885;53.560;9.940;2023-10-08T15:44:03;14.40;68.10
4673;DHT22;61885;53.560;9.940;2023-10-08T15:46:33;14.40;69.20
4673;DHT22;61885;53.560;9.940;2023-10-08T15:49:08;14.40;68.80
4673;DHT22;61885;53.560;9.940;2023-10-08T15:51:39;14.40;68.30
4673;DHT22;61885;53.560;9.940;2023-10-08T15:54:09;14.50;67.50
4673;DHT22;61885;53.560;9.940;2023-10-08T15:56:39;14.60;68.10
4673;DHT22;61885;53.560;9.940;2023-10-08T15:59:09;14.50;67.20
4673;DHT22;61885;53.560;9.940;2023-10-08T16:01:39;14.50;68.00
4673;DHT22;61885;53.560;9.940;2023-10-08T16:04:21;14.50;68.90
4673;DHT22;61885;53.560;9.940;2023-10-08T16:06:55;14.50;67.50
4673;DHT22;61885;53.560;9.940;2023-10-08T16:09:28;14.40;68.90
4673;DHT22;61885;53.560;9.940;2023-10-08T16:12:02;14.40;67.40
4673;DHT22;61885;53.560;9.940;2023-10-08T16:14:33;14.40;68.00
4673;DHT22;61885;53.560;9.940;2023-10-08T16:17:11;14.50;68.50
4673;DHT22;61885;53.560;9.940;2023-10-08T16:19:48;14.30;68.70
4673;DHT22;61885;53.560;9.940;2023-10-08T16:22:18;14.30;69.20
4673;DHT22;61885;53.560;9.940;2023-10-08T16:24:54;14.30;67.50
4673;DHT22;61885;53.560;9.940;2023-10-08T16:27:26;14.40;68.10
4673;DHT22;61885;53.560;9.940;2023-10-08T16:30:03;14.30;68.70
4673;DHT22;61885;53.560;9.940;2023-10-08T16:32:38;14.30;67.50
4673;DHT22;61885;53.560;9.940;2023-10-08T16:35:12;14.20;67.90
4673;DHT22;61885;53.560;9.940;2023-10-08T16:37:42;14.30;67.90
4673;DHT22;61885;53.560;9.940;2023-10-08T16:40:12;14.30;69.10
4673;DHT22;61885;53.560;9.940;2023-10-08T16:42:47;14.10;70.40
4673;DHT22;61885;53.560;9.940;2023-10-08T16:45:18;14.10;68.60
4673;DHT22;61885;53.560;9.940;2023-10-08T16:47:48;14.10;69.60
4673;DHT22;61885;53.560;9.940;2023-10-08T16:50:22;14.10;69.70